sensor_id;sensor_type;location;lat;lon;timestamp;P1;durP1;ratioP1;P2;durP2;ratioP2
70825;SDS011;58446;41.490;22.098;2023-05-27T00:00:04;10.18;;;5.70;;
70825;SDS011;58446;41.490;22.098;2023-05-27T00:02:31;9.75;;;5.57;;
70825;SDS011;58446;41.490;22.098;2023-05-27T00:04:57;11.97;;;5.60;;
70825;SDS011;58446;41.490;22.098;2023-05-27T00:07:23;9.18;;;5.50;;
70825;SDS011;58446;41.490;22.098;2023-05-27T00:09:49;9.10;;;6.07;;
70825;SDS011;58446;41.490;22.098;2023-05-27T00:12:14;9.23;;;5.83;;
70825;SDS011;58446;41.490;22.098;2023-05-27T00:14:40;11.55;;;5.90;;
70825;SDS011;58446;41.490;22.098;2023-05-27T00:17:06;10.00;;;6.03;;
70825;SDS011;58446;41.490;22.098;2023-05-27T00:19:34;10.68;;;5.78;;
70825;SDS011;58446;41.490;22.098;2023-05-27T00:22:00;9.10;;;5.70;;
70825;SDS011;58446;41.490;22.098;2023-05-27T00:24:26;11.40;;;5.13;;
70825;SDS011;58446;41.490;22.098;2023-05-27T00:26:52;9.83;;;5.40;;
70825;SDS011;58446;41.490;22.098;2023-05-27T00:29:17;8.30;;;4.90;;
70825;SDS011;58446;41.490;22.098;2023-05-27T00:31:43;10.43;;;5.73;;
70825;SDS011;58446;41.490;22.098;2023-05-27T00:34:09;8.80;;;4.90;;
70825;SDS011;58446;41.490;22.098;2023-05-27T00:36:35;9.03;;;5.20;;
70825;SDS011;58446;41.490;22.098;2023-05-27T00:39:01;7.75;;;4.80;;
70825;SDS011;58446;41.490;22.098;2023-05-27T00:41:26;9.87;;;5.63;;
70825;SDS011;58446;41.490;22.098;2023-05-27T00:43:53;8.55;;;4.95;;
70825;SDS011;58446;41.490;22.098;2023-05-27T00:46:20;7.78;;;4.80;;
70825;SDS011;58446;41.490;22.098;2023-05-27T00:48:46;8.10;;;5.20;;
70825;SDS011;58446;41.490;22.098;2023-05-27T00:51:12;9.17;;;5.33;;
70825;SDS011;58446;41.490;22.098;2023-05-27T00:53:39;9.90;;;5.30;;
70825;SDS011;58446;41.490;22.098;2023-05-27T00:56:11;9.73;;;4.82;;
70825;SDS011;58446;41.490;22.098;2023-05-27T00:58:40;9.63;;;5.40;;
70825;SDS011;58446;41.490;22.098;2023-05-27T01:01:07;9.13;;;5.07;;
70825;SDS011;58446;41.490;22.098;2023-05-27T01:03:34;10.57;;;5.32;;
70825;SDS011;58446;41.490;22.098;2023-05-27T01:06:05;9.57;;;5.47;;
70825;SDS011;58446;41.490;22.098;2023-05-27T01:11:58;8.50;;;5.53;;
70825;SDS011;58446;41.490;22.098;2023-05-27T01:14:43;8.77;;;4.97;;
70825;SDS011;58446;41.490;22.098;2023-05-27T01:17:10;9.07;;;5.50;;
70825;SDS011;58446;41.490;22.098;2023-05-27T01:19:38;11.88;;;6.05;;
70825;SDS011;58446;41.490;22.098;2023-05-27T01:22:07;10.70;;;5.50;;
70825;SDS011;58446;41.490;22.098;2023-05-27T01:24:37;8.68;;;5.43;;
70825;SDS011;58446;41.490;22.098;2023-05-27T01:27:03;9.33;;;5.33;;
70825;SDS011;58446;41.490;22.098;2023-05-27T01:29:29;8.80;;;5.13;;
70825;SDS011;58446;41.490;22.098;2023-05-27T01:31:57;10.05;;;5.93;;
70825;SDS011;58446;41.490;22.098;2023-05-27T01:34:45;12.65;;;5.63;;
70825;SDS011;58446;41.490;22.098;2023-05-27T01:37:19;12.43;;;4.90;;
70825;SDS011;58446;41.490;22.098;2023-05-27T01:39:49;8.20;;;5.00;;
70825;SDS011;58446;41.490;22.098;2023-05-27T01:42:15;11.10;;;5.50;;
70825;SDS011;58446;41.490;22.098;2023-05-27T01:44:41;8.43;;;5.43;;
70825;SDS011;58446;41.490;22.098;2023-05-27T01:47:08;9.93;;;5.50;;
70825;SDS011;58446;41.490;22.098;2023-05-27T01:49:34;9.43;;;5.40;;
70825;SDS011;58446;41.490;22.098;2023-05-27T01:52:00;10.38;;;5.15;;
70825;SDS011;58446;41.490;22.098;2023-05-27T01:54:26;8.57;;;5.13;;
70825;SDS011;58446;41.490;22.098;2023-05-27T01:56:52;8.67;;;4.67;;
70825;SDS011;58446;41.490;22.098;2023-05-27T01:59:17;9.18;;;5.75;;
70825;SDS011;58446;41.490;22.098;2023-05-27T02:01:43;9.50;;;5.20;;
70825;SDS011;58446;41.490;22.098;2023-05-27T02:04:09;7.72;;;5.25;;
70825;SDS011;58446;41.490;22.098;2023-05-27T02:06:35;9.57;;;5.43;;
70825;SDS011;58446;41.490;22.098;2023-05-27T02:09:01;8.38;;;4.82;;
70825;SDS011;58446;41.490;22.098;2023-05-27T02:11:27;8.85;;;4.80;;
70825;SDS011;58446;41.490;22.098;2023-05-27T02:13:53;8.52;;;5.07;;
70825;SDS011;58446;41.490;22.098;2023-05-27T02:16:19;11.00;;;5.10;;
70825;SDS011;58446;41.490;22.098;2023-05-27T02:18:48;10.38;;;5.38;;
70825;SDS011;58446;41.490;22.098;2023-05-27T02:21:16;8.38;;;5.32;;
70825;SDS011;58446;41.490;22.098;2023-05-27T02:23:42;12.33;;;5.77;;
70825;SDS011;58446;41.490;22.098;2023-05-27T02:26:08;10.35;;;5.68;;
70825;SDS011;58446;41.490;22.098;2023-05-27T02:28:33;9.70;;;5.93;;
70825;SDS011;58446;41.490;22.098;2023-05-27T02:30:59;9.15;;;5.00;;
70825;SDS011;58446;41.490;22.098;2023-05-27T02:33:25;9.10;;;5.10;;
70825;SDS011;58446;41.490;22.098;2023-05-27T02:35:51;9.27;;;5.27;;
70825;SDS011;58446;41.490;22.098;2023-05-27T02:38:17;9.35;;;5.35;;
70825;SDS011;58446;41.490;22.098;2023-05-27T02:40:42;8.90;;;5.20;;
70825;SDS011;58446;41.490;22.098;2023-05-27T02:43:08;10.23;;;5.75;;
70825;SDS011;58446;41.490;22.098;2023-05-27T02:45:34;10.80;;;5.73;;
70825;SDS011;58446;41.490;22.098;2023-05-27T02:48:00;9.23;;;5.57;;
70825;SDS011;58446;41.490;22.098;2023-05-27T02:50:28;10.20;;;5.28;;
70825;SDS011;58446;41.490;22.098;2023-05-27T02:52:54;8.45;;;5.03;;
70825;SDS011;58446;41.490;22.098;2023-05-27T02:55:20;9.37;;;5.70;;
70825;SDS011;58446;41.490;22.098;2023-05-27T02:57:46;11.45;;;5.97;;
70825;SDS011;58446;41.490;22.098;2023-05-27T03:00:12;8.90;;;5.50;;
70825;SDS011;58446;41.490;22.098;2023-05-27T03:02:38;9.80;;;5.80;;
70825;SDS011;58446;41.490;22.098;2023-05-27T03:05:04;10.27;;;5.18;;
70825;SDS011;58446;41.490;22.098;2023-05-27T03:07:30;8.63;;;6.07;;
70825;SDS011;58446;41.490;22.098;2023-05-27T03:09:56;8.90;;;5.30;;
70825;SDS011;58446;41.490;22.098;2023-05-27T03:12:22;10.02;;;6.30;;
70825;SDS011;58446;41.490;22.098;2023-05-27T03:14:48;9.90;;;5.93;;
70825;SDS011;58446;41.490;22.098;2023-05-27T03:17:15;11.38;;;5.80;;
70825;SDS011;58446;41.490;22.098;2023-05-27T03:19:41;9.07;;;5.60;;
70825;SDS011;58446;41.490;22.098;2023-05-27T03:22:07;11.70;;;6.38;;
70825;SDS011;58446;41.490;22.098;2023-05-27T03:24:34;12.70;;;5.80;;
70825;SDS011;58446;41.490;22.098;2023-05-27T03:27:00;9.52;;;4.90;;
70825;SDS011;58446;41.490;22.098;2023-05-27T03:29:26;11.57;;;5.90;;
70825;SDS011;58446;41.490;22.098;2023-05-27T03:31:52;12.88;;;6.40;;
70825;SDS011;58446;41.490;22.098;2023-05-27T03:34:18;9.03;;;5.40;;
70825;SDS011;58446;41.490;22.098;2023-05-27T03:36:44;13.90;;;6.20;;
70825;SDS011;58446;41.490;22.098;2023-05-27T03:39:11;9.18;;;5.82;;
70825;SDS011;58446;41.490;22.098;2023-05-27T03:41:39;12.97;;;5.83;;
70825;SDS011;58446;41.490;22.098;2023-05-27T03:44:05;9.88;;;5.20;;
70825;SDS011;58446;41.490;22.098;2023-05-27T03:46:31;8.65;;;5.28;;
70825;SDS011;58446;41.490;22.098;2023-05-27T03:48:57;8.20;;;5.00;;
70825;SDS011;58446;41.490;22.098;2023-05-27T03:51:23;8.77;;;5.28;;
70825;SDS011;58446;41.490;22.098;2023-05-27T03:53:49;10.65;;;5.15;;
70825;SDS011;58446;41.490;22.098;2023-05-27T03:56:15;9.10;;;5.33;;
70825;SDS011;58446;41.490;22.098;2023-05-27T03:58:41;8.93;;;5.40;;
70825;SDS011;58446;41.490;22.098;2023-05-27T04:01:06;9.60;;;5.30;;
70825;SDS011;58446;41.490;22.098;2023-05-27T04:03:33;11.48;;;5.63;;
70825;SDS011;58446;41.490;22.098;2023-05-27T04:05:59;9.70;;;5.28;;
70825;SDS011;58446;41.490;22.098;2023-05-27T04:08:25;9.10;;;5.20;;
70825;SDS011;58446;41.490;22.098;2023-05-27T04:10:53;10.68;;;5.82;;
70825;SDS011;58446;41.490;22.098;2023-05-27T04:13:20;8.33;;;5.17;;
70825;SDS011;58446;41.490;22.098;2023-05-27T04:15:46;9.13;;;4.72;;
70825;SDS011;58446;41.490;22.098;2023-05-27T04:18:12;9.45;;;5.72;;
70825;SDS011;58446;41.490;22.098;2023-05-27T04:20:38;8.95;;;5.75;;
70825;SDS011;58446;41.490;22.098;2023-05-27T04:23:06;11.57;;;6.80;;
70825;SDS011;58446;41.490;22.098;2023-05-27T04:25:32;11.77;;;5.93;;
70825;SDS011;58446;41.490;22.098;2023-05-27T04:27:59;9.98;;;6.20;;
70825;SDS011;58446;41.490;22.098;2023-05-27T04:30:25;12.02;;;6.07;;
70825;SDS011;58446;41.490;22.098;2023-05-27T04:32:51;12.83;;;6.57;;
70825;SDS011;58446;41.490;22.098;2023-05-27T04:35:17;11.82;;;6.55;;
70825;SDS011;58446;41.490;22.098;2023-05-27T04:37:43;9.65;;;5.70;;
70825;SDS011;58446;41.490;22.098;2023-05-27T04:40:09;11.03;;;5.37;;
70825;SDS011;58446;41.490;22.098;2023-05-27T04:42:36;9.80;;;5.85;;
70825;SDS011;58446;41.490;22.098;2023-05-27T04:45:05;11.18;;;5.95;;
70825;SDS011;58446;41.490;22.098;2023-05-27T04:47:32;9.60;;;5.75;;
70825;SDS011;58446;41.490;22.098;2023-05-27T04:49:58;10.47;;;6.13;;
70825;SDS011;58446;41.490;22.098;2023-05-27T04:52:27;12.80;;;6.78;;
70825;SDS011;58446;41.490;22.098;2023-05-27T04:54:53;12.60;;;6.55;;
70825;SDS011;58446;41.490;22.098;2023-05-27T04:57:20;11.10;;;6.13;;
70825;SDS011;58446;41.490;22.098;2023-05-27T04:59:46;12.98;;;6.47;;
70825;SDS011;58446;41.490;22.098;2023-05-27T05:02:44;11.20;;;6.25;;
70825;SDS011;58446;41.490;22.098;2023-05-27T05:05:12;13.70;;;5.88;;
70825;SDS011;58446;41.490;22.098;2023-05-27T05:07:39;11.02;;;5.53;;
70825;SDS011;58446;41.490;22.098;2023-05-27T05:10:10;10.80;;;5.27;;
70825;SDS011;58446;41.490;22.098;2023-05-27T05:12:37;10.75;;;5.30;;
70825;SDS011;58446;41.490;22.098;2023-05-27T05:15:04;9.50;;;6.00;;
70825;SDS011;58446;41.490;22.098;2023-05-27T05:17:30;10.13;;;5.25;;
70825;SDS011;58446;41.490;22.098;2023-05-27T05:19:56;9.87;;;5.70;;
70825;SDS011;58446;41.490;22.098;2023-05-27T05:22:22;9.38;;;5.90;;
70825;SDS011;58446;41.490;22.098;2023-05-27T05:24:48;10.77;;;6.00;;
70825;SDS011;58446;41.490;22.098;2023-05-27T05:27:15;9.47;;;5.40;;
70825;SDS011;58446;41.490;22.098;2023-05-27T05:29:41;9.57;;;5.25;;
70825;SDS011;58446;41.490;22.098;2023-05-27T05:32:07;8.80;;;4.40;;
70825;SDS011;58446;41.490;22.098;2023-05-27T05:34:36;12.55;;;5.65;;
70825;SDS011;58446;41.490;22.098;2023-05-27T05:37:04;10.75;;;5.70;;
70825;SDS011;58446;41.490;22.098;2023-05-27T05:39:30;11.07;;;5.30;;
70825;SDS011;58446;41.490;22.098;2023-05-27T05:41:56;8.93;;;4.75;;
70825;SDS011;58446;41.490;22.098;2023-05-27T05:44:23;10.02;;;5.70;;
70825;SDS011;58446;41.490;22.098;2023-05-27T05:46:49;8.75;;;4.95;;
70825;SDS011;58446;41.490;22.098;2023-05-27T05:49:14;8.53;;;5.17;;
70825;SDS011;58446;41.490;22.098;2023-05-27T05:51:40;9.82;;;5.18;;
70825;SDS011;58446;41.490;22.098;2023-05-27T05:54:06;9.45;;;5.80;;
70825;SDS011;58446;41.490;22.098;2023-05-27T05:56:32;8.37;;;5.03;;
70825;SDS011;58446;41.490;22.098;2023-05-27T05:58:58;11.85;;;5.60;;
70825;SDS011;58446;41.490;22.098;2023-05-27T06:01:24;10.23;;;5.57;;
70825;SDS011;58446;41.490;22.098;2023-05-27T06:03:52;9.05;;;5.57;;
70825;SDS011;58446;41.490;22.098;2023-05-27T06:06:18;10.93;;;5.10;;
70825;SDS011;58446;41.490;22.098;2023-05-27T06:08:44;9.63;;;4.82;;
70825;SDS011;58446;41.490;22.098;2023-05-27T06:11:10;9.10;;;5.50;;
70825;SDS011;58446;41.490;22.098;2023-05-27T06:13:36;9.47;;;5.83;;
70825;SDS011;58446;41.490;22.098;2023-05-27T06:16:02;9.13;;;5.47;;
70825;SDS011;58446;41.490;22.098;2023-05-27T06:18:28;11.07;;;5.75;;
70825;SDS011;58446;41.490;22.098;2023-05-27T06:20:54;9.60;;;5.60;;
70825;SDS011;58446;41.490;22.098;2023-05-27T06:23:19;8.73;;;5.55;;
70825;SDS011;58446;41.490;22.098;2023-05-27T06:25:45;9.63;;;5.57;;
70825;SDS011;58446;41.490;22.098;2023-05-27T06:28:11;9.68;;;5.45;;
70825;SDS011;58446;41.490;22.098;2023-05-27T06:30:37;10.03;;;5.93;;
70825;SDS011;58446;41.490;22.098;2023-05-27T06:33:03;11.70;;;6.10;;
70825;SDS011;58446;41.490;22.098;2023-05-27T06:35:29;10.38;;;6.28;;
70825;SDS011;58446;41.490;22.098;2023-05-27T06:37:55;9.37;;;5.57;;
70825;SDS011;58446;41.490;22.098;2023-05-27T06:40:20;10.10;;;6.25;;
70825;SDS011;58446;41.490;22.098;2023-05-27T06:42:46;11.05;;;6.47;;
70825;SDS011;58446;41.490;22.098;2023-05-27T06:45:12;10.77;;;6.00;;
70825;SDS011;58446;41.490;22.098;2023-05-27T06:47:38;11.40;;;6.45;;
70825;SDS011;58446;41.490;22.098;2023-05-27T06:50:04;10.73;;;5.95;;
70825;SDS011;58446;41.490;22.098;2023-05-27T06:52:30;9.33;;;5.73;;
70825;SDS011;58446;41.490;22.098;2023-05-27T06:54:56;9.57;;;5.88;;
70825;SDS011;58446;41.490;22.098;2023-05-27T06:57:22;9.80;;;5.53;;
70825;SDS011;58446;41.490;22.098;2023-05-27T06:59:47;10.68;;;6.18;;
70825;SDS011;58446;41.490;22.098;2023-05-27T07:02:13;10.30;;;6.43;;
70825;SDS011;58446;41.490;22.098;2023-05-27T07:04:39;9.98;;;6.18;;
70825;SDS011;58446;41.490;22.098;2023-05-27T07:07:05;11.88;;;6.40;;
70825;SDS011;58446;41.490;22.098;2023-05-27T07:09:31;9.73;;;6.30;;
70825;SDS011;58446;41.490;22.098;2023-05-27T07:11:56;10.55;;;6.22;;
70825;SDS011;58446;41.490;22.098;2023-05-27T07:14:22;9.43;;;6.07;;
70825;SDS011;58446;41.490;22.098;2023-05-27T07:16:48;11.23;;;6.00;;
70825;SDS011;58446;41.490;22.098;2023-05-27T07:19:13;11.40;;;5.93;;
70825;SDS011;58446;41.490;22.098;2023-05-27T07:21:39;10.52;;;6.05;;
70825;SDS011;58446;41.490;22.098;2023-05-27T07:24:05;10.43;;;6.17;;
70825;SDS011;58446;41.490;22.098;2023-05-27T07:26:31;9.85;;;5.97;;
70825;SDS011;58446;41.490;22.098;2023-05-27T07:28:58;11.50;;;6.65;;
70825;SDS011;58446;41.490;22.098;2023-05-27T07:31:25;12.98;;;5.72;;
70825;SDS011;58446;41.490;22.098;2023-05-27T07:33:52;12.07;;;6.13;;
70825;SDS011;58446;41.490;22.098;2023-05-27T07:36:17;11.20;;;6.38;;
70825;SDS011;58446;41.490;22.098;2023-05-27T07:38:43;10.10;;;6.45;;
70825;SDS011;58446;41.490;22.098;2023-05-27T07:41:09;10.47;;;6.37;;
70825;SDS011;58446;41.490;22.098;2023-05-27T07:43:36;11.25;;;6.22;;
70825;SDS011;58446;41.490;22.098;2023-05-27T07:46:02;9.38;;;6.65;;
70825;SDS011;58446;41.490;22.098;2023-05-27T07:48:28;9.93;;;6.43;;
70825;SDS011;58446;41.490;22.098;2023-05-27T07:50:54;11.07;;;7.07;;
70825;SDS011;58446;41.490;22.098;2023-05-27T07:53:20;10.27;;;6.20;;
70825;SDS011;58446;41.490;22.098;2023-05-27T07:55:46;12.55;;;6.70;;
70825;SDS011;58446;41.490;22.098;2023-05-27T07:58:12;11.27;;;7.13;;
70825;SDS011;58446;41.490;22.098;2023-05-27T08:00:38;9.77;;;6.10;;
70825;SDS011;58446;41.490;22.098;2023-05-27T08:03:03;9.82;;;6.50;;
70825;SDS011;58446;41.490;22.098;2023-05-27T08:05:29;12.30;;;5.97;;
70825;SDS011;58446;41.490;22.098;2023-05-27T08:07:55;11.55;;;5.88;;
70825;SDS011;58446;41.490;22.098;2023-05-27T08:10:21;10.27;;;5.80;;
70825;SDS011;58446;41.490;22.098;2023-05-27T08:12:46;9.75;;;5.88;;
70825;SDS011;58446;41.490;22.098;2023-05-27T08:15:12;13.03;;;9.50;;
70825;SDS011;58446;41.490;22.098;2023-05-27T08:17:38;11.13;;;6.90;;
70825;SDS011;58446;41.490;22.098;2023-05-27T08:20:04;12.63;;;6.78;;
70825;SDS011;58446;41.490;22.098;2023-05-27T08:22:31;10.93;;;5.97;;
70825;SDS011;58446;41.490;22.098;2023-05-27T08:24:57;11.33;;;5.90;;
70825;SDS011;58446;41.490;22.098;2023-05-27T08:27:41;9.30;;;6.07;;
70825;SDS011;58446;41.490;22.098;2023-05-27T08:30:11;10.57;;;5.80;;
70825;SDS011;58446;41.490;22.098;2023-05-27T08:32:38;11.75;;;6.07;;
70825;SDS011;58446;41.490;22.098;2023-05-27T08:35:05;9.43;;;6.10;;
70825;SDS011;58446;41.490;22.098;2023-05-27T08:37:31;10.38;;;6.15;;
70825;SDS011;58446;41.490;22.098;2023-05-27T08:39:57;9.52;;;6.18;;
70825;SDS011;58446;41.490;22.098;2023-05-27T08:42:23;10.30;;;6.10;;
70825;SDS011;58446;41.490;22.098;2023-05-27T08:44:49;9.02;;;6.10;;
70825;SDS011;58446;41.490;22.098;2023-05-27T08:47:15;9.95;;;6.28;;
70825;SDS011;58446;41.490;22.098;2023-05-27T08:49:42;12.00;;;5.93;;
70825;SDS011;58446;41.490;22.098;2023-05-27T08:52:11;11.45;;;6.05;;
70825;SDS011;58446;41.490;22.098;2023-05-27T08:54:43;10.43;;;7.25;;
70825;SDS011;58446;41.490;22.098;2023-05-27T08:57:10;10.13;;;6.95;;
70825;SDS011;58446;41.490;22.098;2023-05-27T08:59:38;9.80;;;6.70;;
70825;SDS011;58446;41.490;22.098;2023-05-27T09:02:06;11.13;;;6.63;;
70825;SDS011;58446;41.490;22.098;2023-05-27T09:04:37;10.38;;;6.82;;
70825;SDS011;58446;41.490;22.098;2023-05-27T09:07:05;9.27;;;6.05;;
70825;SDS011;58446;41.490;22.098;2023-05-27T09:09:31;9.27;;;6.05;;
70825;SDS011;58446;41.490;22.098;2023-05-27T09:12:03;9.20;;;6.07;;
70825;SDS011;58446;41.490;22.098;2023-05-27T09:14:31;8.82;;;5.57;;
70825;SDS011;58446;41.490;22.098;2023-05-27T09:16:57;10.18;;;6.78;;
70825;SDS011;58446;41.490;22.098;2023-05-27T09:19:30;8.25;;;5.50;;
70825;SDS011;58446;41.490;22.098;2023-05-27T09:21:56;10.63;;;6.10;;
70825;SDS011;58446;41.490;22.098;2023-05-27T09:24:25;10.25;;;5.72;;
70825;SDS011;58446;41.490;22.098;2023-05-27T09:26:51;9.57;;;5.80;;
70825;SDS011;58446;41.490;22.098;2023-05-27T09:29:18;14.38;;;6.40;;
70825;SDS011;58446;41.490;22.098;2023-05-27T09:31:44;8.63;;;5.90;;
70825;SDS011;58446;41.490;22.098;2023-05-27T09:34:14;9.25;;;5.85;;
70825;SDS011;58446;41.490;22.098;2023-05-27T09:36:44;8.32;;;4.97;;
70825;SDS011;58446;41.490;22.098;2023-05-27T09:39:12;9.32;;;5.18;;
70825;SDS011;58446;41.490;22.098;2023-05-27T09:41:39;9.55;;;5.55;;
70825;SDS011;58446;41.490;22.098;2023-05-27T09:44:05;8.63;;;5.00;;
70825;SDS011;58446;41.490;22.098;2023-05-27T09:46:34;8.75;;;5.07;;
70825;SDS011;58446;41.490;22.098;2023-05-27T09:49:00;8.68;;;5.35;;
70825;SDS011;58446;41.490;22.098;2023-05-27T09:51:27;8.88;;;5.45;;
70825;SDS011;58446;41.490;22.098;2023-05-27T09:53:54;9.03;;;5.63;;
70825;SDS011;58446;41.490;22.098;2023-05-27T09:56:24;8.60;;;5.47;;
70825;SDS011;58446;41.490;22.098;2023-05-27T09:58:54;8.50;;;5.72;;
70825;SDS011;58446;41.490;22.098;2023-05-27T10:01:27;11.13;;;5.68;;
70825;SDS011;58446;41.490;22.098;2023-05-27T10:03:57;9.77;;;5.63;;
70825;SDS011;58446;41.490;22.098;2023-05-27T10:06:23;10.00;;;5.20;;
70825;SDS011;58446;41.490;22.098;2023-05-27T10:08:49;8.77;;;5.88;;
70825;SDS011;58446;41.490;22.098;2023-05-27T10:11:20;9.25;;;5.25;;
70825;SDS011;58446;41.490;22.098;2023-05-27T10:13:48;8.85;;;5.40;;
70825;SDS011;58446;41.490;22.098;2023-05-27T10:16:18;9.20;;;5.50;;
70825;SDS011;58446;41.490;22.098;2023-05-27T10:18:46;9.17;;;5.23;;
70825;SDS011;58446;41.490;22.098;2023-05-27T10:21:20;7.68;;;4.85;;
70825;SDS011;58446;41.490;22.098;2023-05-27T10:29:08;9.93;;;4.72;;
70825;SDS011;58446;41.490;22.098;2023-05-27T10:31:43;8.57;;;4.63;;
70825;SDS011;58446;41.490;22.098;2023-05-27T10:34:10;7.88;;;4.97;;
70825;SDS011;58446;41.490;22.098;2023-05-27T10:36:36;8.23;;;5.18;;
70825;SDS011;58446;41.490;22.098;2023-05-27T10:39:05;16.23;;;4.90;;
70825;SDS011;58446;41.490;22.098;2023-05-27T10:41:48;8.70;;;4.70;;
70825;SDS011;58446;41.490;22.098;2023-05-27T10:44:36;10.65;;;5.13;;
70825;SDS011;58446;41.490;22.098;2023-05-27T10:47:02;8.13;;;4.90;;
70825;SDS011;58446;41.490;22.098;2023-05-27T10:49:33;11.90;;;5.28;;
70825;SDS011;58446;41.490;22.098;2023-05-27T10:52:07;7.87;;;5.13;;
70825;SDS011;58446;41.490;22.098;2023-05-27T10:54:41;8.60;;;4.78;;
70825;SDS011;58446;41.490;22.098;2023-05-27T10:57:09;7.78;;;4.75;;
70825;SDS011;58446;41.490;22.098;2023-05-27T11:02:17;8.30;;;5.03;;
70825;SDS011;58446;41.490;22.098;2023-05-27T11:04:43;7.97;;;4.80;;
70825;SDS011;58446;41.490;22.098;2023-05-27T11:07:09;8.32;;;4.85;;
70825;SDS011;58446;41.490;22.098;2023-05-27T11:09:51;9.65;;;4.70;;
70825;SDS011;58446;41.490;22.098;2023-05-27T11:12:18;8.52;;;4.80;;
70825;SDS011;58446;41.490;22.098;2023-05-27T11:14:49;8.00;;;4.07;;
70825;SDS011;58446;41.490;22.098;2023-05-27T11:17:17;8.57;;;4.25;;
70825;SDS011;58446;41.490;22.098;2023-05-27T11:19:43;8.93;;;4.35;;
70825;SDS011;58446;41.490;22.098;2023-05-27T11:22:13;7.30;;;4.22;;
70825;SDS011;58446;41.490;22.098;2023-05-27T11:24:40;7.38;;;4.25;;
70825;SDS011;58446;41.490;22.098;2023-05-27T11:27:12;8.33;;;4.80;;
70825;SDS011;58446;41.490;22.098;2023-05-27T11:29:40;8.23;;;4.32;;
70825;SDS011;58446;41.490;22.098;2023-05-27T11:32:15;7.85;;;4.15;;
70825;SDS011;58446;41.490;22.098;2023-05-27T11:34:43;7.53;;;4.22;;
70825;SDS011;58446;41.490;22.098;2023-05-27T11:37:10;7.53;;;3.87;;
70825;SDS011;58446;41.490;22.098;2023-05-27T11:39:36;8.27;;;4.40;;
70825;SDS011;58446;41.490;22.098;2023-05-27T11:42:04;8.73;;;4.30;;
70825;SDS011;58446;41.490;22.098;2023-05-27T11:44:31;8.73;;;5.28;;
70825;SDS011;58446;41.490;22.098;2023-05-27T11:47:00;9.77;;;4.50;;
70825;SDS011;58446;41.490;22.098;2023-05-27T11:49:27;9.07;;;4.80;;
70825;SDS011;58446;41.490;22.098;2023-05-27T11:51:56;9.35;;;4.82;;
70825;SDS011;58446;41.490;22.098;2023-05-27T11:54:27;9.10;;;5.23;;
70825;SDS011;58446;41.490;22.098;2023-05-27T11:56:55;9.65;;;4.85;;
70825;SDS011;58446;41.490;22.098;2023-05-27T11:59:21;7.65;;;4.85;;
70825;SDS011;58446;41.490;22.098;2023-05-27T12:01:48;9.25;;;4.68;;
70825;SDS011;58446;41.490;22.098;2023-05-27T12:04:15;8.15;;;4.70;;
70825;SDS011;58446;41.490;22.098;2023-05-27T12:06:41;10.90;;;5.30;;
70825;SDS011;58446;41.490;22.098;2023-05-27T12:09:08;8.88;;;4.70;;
70825;SDS011;58446;41.490;22.098;2023-05-27T12:11:34;8.05;;;4.50;;
70825;SDS011;58446;41.490;22.098;2023-05-27T12:14:00;9.63;;;5.40;;
70825;SDS011;58446;41.490;22.098;2023-05-27T12:16:26;10.17;;;5.40;;
70825;SDS011;58446;41.490;22.098;2023-05-27T12:18:52;8.32;;;5.43;;
70825;SDS011;58446;41.490;22.098;2023-05-27T12:21:20;9.27;;;5.45;;
70825;SDS011;58446;41.490;22.098;2023-05-27T12:23:46;8.90;;;5.40;;
70825;SDS011;58446;41.490;22.098;2023-05-27T12:26:13;9.40;;;4.63;;
70825;SDS011;58446;41.490;22.098;2023-05-27T12:28:40;9.30;;;5.70;;
70825;SDS011;58446;41.490;22.098;2023-05-27T12:31:06;8.73;;;5.65;;
70825;SDS011;58446;41.490;22.098;2023-05-27T12:33:32;9.43;;;5.38;;
70825;SDS011;58446;41.490;22.098;2023-05-27T12:35:59;10.35;;;5.90;;
70825;SDS011;58446;41.490;22.098;2023-05-27T12:38:25;10.03;;;5.27;;
70825;SDS011;58446;41.490;22.098;2023-05-27T12:40:51;8.75;;;5.20;;
70825;SDS011;58446;41.490;22.098;2023-05-27T12:43:18;9.38;;;5.53;;
70825;SDS011;58446;41.490;22.098;2023-05-27T12:45:44;9.32;;;6.00;;
70825;SDS011;58446;41.490;22.098;2023-05-27T12:48:13;12.30;;;5.93;;
70825;SDS011;58446;41.490;22.098;2023-05-27T12:50:39;9.30;;;5.53;;
70825;SDS011;58446;41.490;22.098;2023-05-27T12:53:07;11.40;;;5.72;;
70825;SDS011;58446;41.490;22.098;2023-05-27T12:55:33;9.10;;;6.07;;
70825;SDS011;58446;41.490;22.098;2023-05-27T12:57:59;10.43;;;5.93;;
70825;SDS011;58446;41.490;22.098;2023-05-27T13:00:25;11.13;;;5.77;;
70825;SDS011;58446;41.490;22.098;2023-05-27T13:02:51;9.60;;;6.10;;
70825;SDS011;58446;41.490;22.098;2023-05-27T13:05:17;8.87;;;5.77;;
70825;SDS011;58446;41.490;22.098;2023-05-27T13:07:57;10.20;;;5.23;;
70825;SDS011;58446;41.490;22.098;2023-05-27T13:10:27;9.57;;;6.32;;
70825;SDS011;58446;41.490;22.098;2023-05-27T13:12:54;10.20;;;6.22;;
70825;SDS011;58446;41.490;22.098;2023-05-27T13:15:20;10.57;;;6.10;;
70825;SDS011;58446;41.490;22.098;2023-05-27T13:17:47;10.25;;;6.78;;
70825;SDS011;58446;41.490;22.098;2023-05-27T13:20:15;9.87;;;6.27;;
70825;SDS011;58446;41.490;22.098;2023-05-27T13:22:41;12.60;;;6.70;;
70825;SDS011;58446;41.490;22.098;2023-05-27T13:25:08;10.48;;;6.85;;
70825;SDS011;58446;41.490;22.098;2023-05-27T13:27:36;9.95;;;6.30;;
70825;SDS011;58446;41.490;22.098;2023-05-27T13:30:02;14.45;;;6.88;;
70825;SDS011;58446;41.490;22.098;2023-05-27T13:32:28;10.63;;;7.00;;
70825;SDS011;58446;41.490;22.098;2023-05-27T13:34:54;10.70;;;6.90;;
70825;SDS011;58446;41.490;22.098;2023-05-27T13:37:20;12.13;;;7.05;;
70825;SDS011;58446;41.490;22.098;2023-05-27T13:39:46;10.70;;;6.70;;
70825;SDS011;58446;41.490;22.098;2023-05-27T13:42:12;10.05;;;6.75;;
70825;SDS011;58446;41.490;22.098;2023-05-27T13:44:38;9.45;;;5.60;;
70825;SDS011;58446;41.490;22.098;2023-05-27T13:47:04;9.47;;;5.83;;
70825;SDS011;58446;41.490;22.098;2023-05-27T13:49:30;9.95;;;6.35;;
70825;SDS011;58446;41.490;22.098;2023-05-27T13:51:56;10.13;;;5.97;;
70825;SDS011;58446;41.490;22.098;2023-05-27T13:54:22;9.60;;;5.30;;
70825;SDS011;58446;41.490;22.098;2023-05-27T13:56:47;9.93;;;6.17;;
70825;SDS011;58446;41.490;22.098;2023-05-27T13:59:14;8.63;;;5.30;;
70825;SDS011;58446;41.490;22.098;2023-05-27T14:01:40;10.03;;;5.80;;
70825;SDS011;58446;41.490;22.098;2023-05-27T14:04:06;9.48;;;6.35;;
70825;SDS011;58446;41.490;22.098;2023-05-27T14:06:31;10.90;;;5.88;;
70825;SDS011;58446;41.490;22.098;2023-05-27T14:08:57;11.02;;;6.30;;
70825;SDS011;58446;41.490;22.098;2023-05-27T14:11:23;9.90;;;6.10;;
70825;SDS011;58446;41.490;22.098;2023-05-27T14:13:49;11.30;;;6.20;;
70825;SDS011;58446;41.490;22.098;2023-05-27T14:16:15;9.47;;;5.50;;
70825;SDS011;58446;41.490;22.098;2023-05-27T14:18:41;10.80;;;6.00;;
70825;SDS011;58446;41.490;22.098;2023-05-27T14:21:08;10.02;;;6.00;;
70825;SDS011;58446;41.490;22.098;2023-05-27T14:23:34;11.73;;;5.47;;
70825;SDS011;58446;41.490;22.098;2023-05-27T14:26:00;10.60;;;5.97;;
70825;SDS011;58446;41.490;22.098;2023-05-27T14:28:25;9.75;;;5.78;;
70825;SDS011;58446;41.490;22.098;2023-05-27T14:30:51;10.20;;;5.17;;
70825;SDS011;58446;41.490;22.098;2023-05-27T14:33:18;9.73;;;5.45;;
70825;SDS011;58446;41.490;22.098;2023-05-27T14:35:44;10.20;;;5.80;;
70825;SDS011;58446;41.490;22.098;2023-05-27T14:38:11;11.50;;;5.53;;